KSLC/SLC METAR and TAF weather

Enter ICAO airport designator
Station Type Date Time Source
KSLC METAR 2019/06/16 11:54 UTC NOAA

KSLC 161154Z 14005KT 10SM BKN200 17/07 A2994 RMK AO2 SLP086 T01720067 10217 20172 53004 VISNO NW RNWY


Station Type Date Time Source
KSLC Decoded METAR 2019/06/16 11:54 UTC NOAA

SALT LAKE CITY INTERNATIONAL AIRPORT , UT, United States (KSLC) 40-47N 111-58W 1286M
Jun 16, 2019 - 07:54 AM EDT / 2019.06.16 1154 UTC
Wind: from the SE (140 degrees) at 6 MPH (5 KT):0
Visibility: 10 mile(s):0
Sky conditions: mostly cloudy
Temperature: 63.0 F (17.2 C)
Dew Point: 44.1 F (6.7 C)
Relative Humidity: 50%
Pressure (altimeter): 29.94 in. Hg (1013 hPa)
Pressure tendency: 0.01 inches (0.4 hPa) higher than three hours ago
ob: KSLC 161154Z 14005KT 10SM BKN200 17/07 A2994 RMK AO2 SLP086 T01720067 10217 20172 53004 VISNO NW RNWY
cycle: 12

Station Type Date Time Source
KSLC TAF 2019/06/16 12:22 UTC NOAA

TAF KSLC 161120Z 1612/1718 14005KT P6SM SCT120
FM161800 30009KT P6SM SCT100
FM170300 16008KT P6SM SCT100 SCT120

Example: see airport list